sensor_id;sensor_type;location;lat;lon;timestamp;temperature;humidity
14733;DHT22;7457;50.960;6.830;2023-07-30T00:01:20;16.30;100.00
14733;DHT22;7457;50.960;6.830;2023-07-30T00:03:45;16.30;100.00
14733;DHT22;7457;50.960;6.830;2023-07-30T00:06:11;16.30;100.00
14733;DHT22;7457;50.960;6.830;2023-07-30T00:08:36;16.30;100.00
14733;DHT22;7457;50.960;6.830;2023-07-30T00:11:02;16.20;100.00
14733;DHT22;7457;50.960;6.830;2023-07-30T00:13:28;16.20;100.00
14733;DHT22;7457;50.960;6.830;2023-07-30T00:15:53;16.20;100.00
14733;DHT22;7457;50.960;6.830;2023-07-30T00:18:19;16.20;100.00
14733;DHT22;7457;50.960;6.830;2023-07-30T00:20:45;16.10;100.00
14733;DHT22;7457;50.960;6.830;2023-07-30T00:23:10;16.10;100.00
14733;DHT22;7457;50.960;6.830;2023-07-30T00:25:36;16.10;100.00
14733;DHT22;7457;50.960;6.830;2023-07-30T00:28:02;16.10;100.00
14733;DHT22;7457;50.960;6.830;2023-07-30T00:30:28;16.10;100.00
14733;DHT22;7457;50.960;6.830;2023-07-30T00:32:53;16.00;100.00
14733;DHT22;7457;50.960;6.830;2023-07-30T00:35:19;16.00;100.00
14733;DHT22;7457;50.960;6.830;2023-07-30T00:37:45;16.00;100.00
14733;DHT22;7457;50.960;6.830;2023-07-30T00:40:11;16.00;100.00
14733;DHT22;7457;50.960;6.830;2023-07-30T00:42:37;16.00;100.00
14733;DHT22;7457;50.960;6.830;2023-07-30T00:45:03;15.90;100.00
14733;DHT22;7457;50.960;6.830;2023-07-30T00:47:29;15.90;100.00
14733;DHT22;7457;50.960;6.830;2023-07-30T00:49:55;15.90;100.00
14733;DHT22;7457;50.960;6.830;2023-07-30T00:52:21;15.90;100.00
14733;DHT22;7457;50.960;6.830;2023-07-30T00:54:48;15.90;100.00
14733;DHT22;7457;50.960;6.830;2023-07-30T00:57:16;15.90;100.00
14733;DHT22;7457;50.960;6.830;2023-07-30T00:59:42;15.90;100.00
14733;DHT22;7457;50.960;6.830;2023-07-30T01:02:08;15.90;100.00
14733;DHT22;7457;50.960;6.830;2023-07-30T01:04:34;16.00;100.00
14733;DHT22;7457;50.960;6.830;2023-07-30T01:07:03;16.00;100.00
14733;DHT22;7457;50.960;6.830;2023-07-30T01:09:28;16.00;100.00
14733;DHT22;7457;50.960;6.830;2023-07-30T01:11:55;16.00;100.00
14733;DHT22;7457;50.960;6.830;2023-07-30T01:14:21;16.00;100.00
14733;DHT22;7457;50.960;6.830;2023-07-30T01:16:48;16.10;100.00
14733;DHT22;7457;50.960;6.830;2023-07-30T01:19:14;16.10;100.00
14733;DHT22;7457;50.960;6.830;2023-07-30T01:21:40;16.10;100.00
14733;DHT22;7457;50.960;6.830;2023-07-30T01:24:05;16.20;100.00
14733;DHT22;7457;50.960;6.830;2023-07-30T01:26:44;16.20;100.00
14733;DHT22;7457;50.960;6.830;2023-07-30T01:29:22;16.20;100.00
14733;DHT22;7457;50.960;6.830;2023-07-30T01:31:53;16.20;100.00
14733;DHT22;7457;50.960;6.830;2023-07-30T01:34:21;16.30;100.00
14733;DHT22;7457;50.960;6.830;2023-07-30T01:36:49;16.30;100.00
14733;DHT22;7457;50.960;6.830;2023-07-30T01:39:15;16.30;100.00
14733;DHT22;7457;50.960;6.830;2023-07-30T01:41:40;16.30;100.00
14733;DHT22;7457;50.960;6.830;2023-07-30T01:44:06;16.40;100.00
14733;DHT22;7457;50.960;6.830;2023-07-30T01:46:32;16.40;100.00
14733;DHT22;7457;50.960;6.830;2023-07-30T01:48:58;16.40;100.00
14733;DHT22;7457;50.960;6.830;2023-07-30T01:51:23;16.40;100.00
14733;DHT22;7457;50.960;6.830;2023-07-30T01:53:49;16.50;100.00
14733;DHT22;7457;50.960;6.830;2023-07-30T01:56:14;16.40;100.00
14733;DHT22;7457;50.960;6.830;2023-07-30T01:58:40;16.50;100.00
14733;DHT22;7457;50.960;6.830;2023-07-30T02:01:06;16.50;100.00
14733;DHT22;7457;50.960;6.830;2023-07-30T02:03:31;16.50;100.00
14733;DHT22;7457;50.960;6.830;2023-07-30T02:05:57;16.50;100.00
14733;DHT22;7457;50.960;6.830;2023-07-30T02:08:22;16.50;100.00
14733;DHT22;7457;50.960;6.830;2023-07-30T02:10:55;16.50;100.00
14733;DHT22;7457;50.960;6.830;2023-07-30T02:13:21;16.50;100.00
14733;DHT22;7457;50.960;6.830;2023-07-30T02:15:46;16.50;100.00
14733;DHT22;7457;50.960;6.830;2023-07-30T02:18:12;16.50;100.00
14733;DHT22;7457;50.960;6.830;2023-07-30T02:20:38;16.50;100.00
14733;DHT22;7457;50.960;6.830;2023-07-30T02:23:03;16.50;100.00
14733;DHT22;7457;50.960;6.830;2023-07-30T02:25:29;16.50;99.90
14733;DHT22;7457;50.960;6.830;2023-07-30T02:27:55;16.40;99.80
14733;DHT22;7457;50.960;6.830;2023-07-30T02:30:20;16.40;99.80
14733;DHT22;7457;50.960;6.830;2023-07-30T02:32:46;16.40;99.80
14733;DHT22;7457;50.960;6.830;2023-07-30T02:35:11;16.30;99.80
14733;DHT22;7457;50.960;6.830;2023-07-30T02:37:37;16.30;99.80
14733;DHT22;7457;50.960;6.830;2023-07-30T02:40:03;16.30;99.70
14733;DHT22;7457;50.960;6.830;2023-07-30T02:42:30;16.30;99.70
14733;DHT22;7457;50.960;6.830;2023-07-30T02:44:56;16.30;99.70
14733;DHT22;7457;50.960;6.830;2023-07-30T02:47:22;16.30;99.60
14733;DHT22;7457;50.960;6.830;2023-07-30T02:49:47;16.30;99.50
14733;DHT22;7457;50.960;6.830;2023-07-30T02:52:13;16.20;99.50
14733;DHT22;7457;50.960;6.830;2023-07-30T02:54:38;16.20;99.50
14733;DHT22;7457;50.960;6.830;2023-07-30T02:57:04;16.20;99.50
14733;DHT22;7457;50.960;6.830;2023-07-30T02:59:30;16.20;99.50
14733;DHT22;7457;50.960;6.830;2023-07-30T03:01:56;16.20;99.50
14733;DHT22;7457;50.960;6.830;2023-07-30T03:04:21;16.20;99.60
14733;DHT22;7457;50.960;6.830;2023-07-30T03:06:47;16.20;99.60
14733;DHT22;7457;50.960;6.830;2023-07-30T03:09:12;16.20;99.70
14733;DHT22;7457;50.960;6.830;2023-07-30T03:11:38;16.20;99.70
14733;DHT22;7457;50.960;6.830;2023-07-30T03:14:04;16.20;99.70
14733;DHT22;7457;50.960;6.830;2023-07-30T03:16:29;16.10;99.60
14733;DHT22;7457;50.960;6.830;2023-07-30T03:18:55;16.10;99.50
14733;DHT22;7457;50.960;6.830;2023-07-30T03:21:20;16.10;99.30
14733;DHT22;7457;50.960;6.830;2023-07-30T03:23:46;16.10;99.20
14733;DHT22;7457;50.960;6.830;2023-07-30T03:26:13;16.20;99.10
14733;DHT22;7457;50.960;6.830;2023-07-30T03:28:39;16.20;99.00
14733;DHT22;7457;50.960;6.830;2023-07-30T03:31:04;16.20;98.70
14733;DHT22;7457;50.960;6.830;2023-07-30T03:33:31;16.20;98.60
14733;DHT22;7457;50.960;6.830;2023-07-30T03:35:56;16.20;98.50
14733;DHT22;7457;50.960;6.830;2023-07-30T03:38:22;16.10;98.40
14733;DHT22;7457;50.960;6.830;2023-07-30T03:40:47;16.20;98.30
14733;DHT22;7457;50.960;6.830;2023-07-30T03:43:13;16.10;98.30
14733;DHT22;7457;50.960;6.830;2023-07-30T03:45:39;16.10;98.20
14733;DHT22;7457;50.960;6.830;2023-07-30T03:48:05;16.10;98.20
14733;DHT22;7457;50.960;6.830;2023-07-30T03:50:30;16.10;98.20
14733;DHT22;7457;50.960;6.830;2023-07-30T03:52:56;16.10;98.00
14733;DHT22;7457;50.960;6.830;2023-07-30T03:55:23;16.10;97.90
14733;DHT22;7457;50.960;6.830;2023-07-30T03:57:49;16.10;97.80
14733;DHT22;7457;50.960;6.830;2023-07-30T04:00:15;16.00;97.80
14733;DHT22;7457;50.960;6.830;2023-07-30T04:02:40;16.00;97.60
14733;DHT22;7457;50.960;6.830;2023-07-30T04:05:06;16.00;97.60
14733;DHT22;7457;50.960;6.830;2023-07-30T04:07:32;16.00;97.60
14733;DHT22;7457;50.960;6.830;2023-07-30T04:09:57;16.00;97.70
14733;DHT22;7457;50.960;6.830;2023-07-30T04:12:23;16.00;97.70
14733;DHT22;7457;50.960;6.830;2023-07-30T04:14:49;16.00;97.80
14733;DHT22;7457;50.960;6.830;2023-07-30T04:17:14;16.00;97.80
14733;DHT22;7457;50.960;6.830;2023-07-30T04:19:40;16.00;97.80
14733;DHT22;7457;50.960;6.830;2023-07-30T04:22:06;16.00;97.80
14733;DHT22;7457;50.960;6.830;2023-07-30T04:24:31;16.00;97.80
14733;DHT22;7457;50.960;6.830;2023-07-30T04:26:57;16.00;97.90
14733;DHT22;7457;50.960;6.830;2023-07-30T04:29:22;16.00;97.80
14733;DHT22;7457;50.960;6.830;2023-07-30T04:31:48;16.10;97.70
14733;DHT22;7457;50.960;6.830;2023-07-30T04:34:13;16.10;97.40
14733;DHT22;7457;50.960;6.830;2023-07-30T04:36:40;16.10;97.40
14733;DHT22;7457;50.960;6.830;2023-07-30T04:39:06;16.10;97.00
14733;DHT22;7457;50.960;6.830;2023-07-30T04:41:31;16.10;96.90
14733;DHT22;7457;50.960;6.830;2023-07-30T04:43:57;16.10;96.90
14733;DHT22;7457;50.960;6.830;2023-07-30T04:46:22;16.10;96.70
14733;DHT22;7457;50.960;6.830;2023-07-30T04:48:48;16.10;96.20
14733;DHT22;7457;50.960;6.830;2023-07-30T04:51:14;16.10;96.20
14733;DHT22;7457;50.960;6.830;2023-07-30T04:53:39;16.10;96.30
14733;DHT22;7457;50.960;6.830;2023-07-30T04:56:05;16.10;96.20
14733;DHT22;7457;50.960;6.830;2023-07-30T04:58:30;16.10;96.10
14733;DHT22;7457;50.960;6.830;2023-07-30T05:00:56;16.20;96.30
14733;DHT22;7457;50.960;6.830;2023-07-30T05:03:22;16.20;96.50
14733;DHT22;7457;50.960;6.830;2023-07-30T05:05:47;16.20;95.80
14733;DHT22;7457;50.960;6.830;2023-07-30T05:08:13;16.20;95.50
14733;DHT22;7457;50.960;6.830;2023-07-30T05:10:38;16.30;95.10
14733;DHT22;7457;50.960;6.830;2023-07-30T05:13:04;16.30;94.90
14733;DHT22;7457;50.960;6.830;2023-07-30T05:15:30;16.20;94.80
14733;DHT22;7457;50.960;6.830;2023-07-30T05:17:55;16.20;94.50
14733;DHT22;7457;50.960;6.830;2023-07-30T05:20:21;16.20;94.60
14733;DHT22;7457;50.960;6.830;2023-07-30T05:22:46;16.10;94.50
14733;DHT22;7457;50.960;6.830;2023-07-30T05:25:12;16.10;94.50
14733;DHT22;7457;50.960;6.830;2023-07-30T05:27:38;16.10;94.60
14733;DHT22;7457;50.960;6.830;2023-07-30T05:30:04;16.10;94.40
14733;DHT22;7457;50.960;6.830;2023-07-30T05:32:29;16.00;93.90
14733;DHT22;7457;50.960;6.830;2023-07-30T05:34:55;16.00;93.70
14733;DHT22;7457;50.960;6.830;2023-07-30T05:37:21;16.00;93.20
14733;DHT22;7457;50.960;6.830;2023-07-30T05:39:46;16.00;92.70
14733;DHT22;7457;50.960;6.830;2023-07-30T05:42:12;16.00;92.50
14733;DHT22;7457;50.960;6.830;2023-07-30T05:44:37;16.00;92.40
14733;DHT22;7457;50.960;6.830;2023-07-30T05:47:03;16.00;92.60
14733;DHT22;7457;50.960;6.830;2023-07-30T05:49:29;16.00;92.70
14733;DHT22;7457;50.960;6.830;2023-07-30T05:51:55;16.00;92.70
14733;DHT22;7457;50.960;6.830;2023-07-30T05:54:21;16.00;92.80
14733;DHT22;7457;50.960;6.830;2023-07-30T05:56:46;16.00;93.00
14733;DHT22;7457;50.960;6.830;2023-07-30T05:59:12;16.00;93.10
14733;DHT22;7457;50.960;6.830;2023-07-30T06:01:38;16.10;93.30
14733;DHT22;7457;50.960;6.830;2023-07-30T06:04:04;16.10;93.30
14733;DHT22;7457;50.960;6.830;2023-07-30T06:06:29;16.10;93.30
14733;DHT22;7457;50.960;6.830;2023-07-30T06:08:55;16.20;93.40
14733;DHT22;7457;50.960;6.830;2023-07-30T06:11:21;16.30;93.30
14733;DHT22;7457;50.960;6.830;2023-07-30T06:13:47;16.30;93.00
14733;DHT22;7457;50.960;6.830;2023-07-30T06:16:14;16.40;92.80
14733;DHT22;7457;50.960;6.830;2023-07-30T06:18:40;16.40;92.70
14733;DHT22;7457;50.960;6.830;2023-07-30T06:21:05;16.40;92.90
14733;DHT22;7457;50.960;6.830;2023-07-30T06:23:31;16.40;93.10
14733;DHT22;7457;50.960;6.830;2023-07-30T06:25:57;16.50;93.20
14733;DHT22;7457;50.960;6.830;2023-07-30T06:28:22;16.50;93.30
14733;DHT22;7457;50.960;6.830;2023-07-30T06:30:49;16.50;93.20
14733;DHT22;7457;50.960;6.830;2023-07-30T06:33:14;16.60;92.80
14733;DHT22;7457;50.960;6.830;2023-07-30T06:35:40;16.60;92.30
14733;DHT22;7457;50.960;6.830;2023-07-30T06:38:07;16.50;91.80
14733;DHT22;7457;50.960;6.830;2023-07-30T06:40:33;16.50;91.60
14733;DHT22;7457;50.960;6.830;2023-07-30T06:42:59;16.50;91.70
14733;DHT22;7457;50.960;6.830;2023-07-30T06:45:24;16.40;91.50
14733;DHT22;7457;50.960;6.830;2023-07-30T06:47:50;16.40;91.70
14733;DHT22;7457;50.960;6.830;2023-07-30T06:50:16;16.40;92.00
14733;DHT22;7457;50.960;6.830;2023-07-30T06:52:41;16.40;91.60
14733;DHT22;7457;50.960;6.830;2023-07-30T06:55:07;16.40;91.50
14733;DHT22;7457;50.960;6.830;2023-07-30T06:57:33;16.40;91.70
14733;DHT22;7457;50.960;6.830;2023-07-30T06:59:58;16.40;91.40
14733;DHT22;7457;50.960;6.830;2023-07-30T07:02:26;16.40;91.30
14733;DHT22;7457;50.960;6.830;2023-07-30T07:04:51;16.50;91.40
14733;DHT22;7457;50.960;6.830;2023-07-30T07:07:17;16.50;91.30
14733;DHT22;7457;50.960;6.830;2023-07-30T07:09:43;16.50;90.70
14733;DHT22;7457;50.960;6.830;2023-07-30T07:12:08;16.60;90.70
14733;DHT22;7457;50.960;6.830;2023-07-30T07:14:34;16.60;90.80
14733;DHT22;7457;50.960;6.830;2023-07-30T07:17:00;16.60;90.30
14733;DHT22;7457;50.960;6.830;2023-07-30T07:19:25;16.70;90.00
14733;DHT22;7457;50.960;6.830;2023-07-30T07:21:51;16.80;90.30
14733;DHT22;7457;50.960;6.830;2023-07-30T07:24:16;16.90;90.00
14733;DHT22;7457;50.960;6.830;2023-07-30T07:26:42;16.90;89.80
14733;DHT22;7457;50.960;6.830;2023-07-30T07:29:09;17.00;89.60
14733;DHT22;7457;50.960;6.830;2023-07-30T07:31:34;17.10;89.10
14733;DHT22;7457;50.960;6.830;2023-07-30T07:34:00;17.10;88.70
14733;DHT22;7457;50.960;6.830;2023-07-30T07:36:26;17.20;88.40
14733;DHT22;7457;50.960;6.830;2023-07-30T07:38:51;17.20;88.30
14733;DHT22;7457;50.960;6.830;2023-07-30T07:41:17;17.20;87.90
14733;DHT22;7457;50.960;6.830;2023-07-30T07:43:44;17.30;88.20
14733;DHT22;7457;50.960;6.830;2023-07-30T07:46:10;17.30;88.40
14733;DHT22;7457;50.960;6.830;2023-07-30T07:48:42;17.40;88.40
14733;DHT22;7457;50.960;6.830;2023-07-30T07:51:11;17.50;87.90
14733;DHT22;7457;50.960;6.830;2023-07-30T07:53:37;17.60;87.60
14733;DHT22;7457;50.960;6.830;2023-07-30T07:56:04;17.60;87.10
14733;DHT22;7457;50.960;6.830;2023-07-30T07:58:31;17.50;86.70
14733;DHT22;7457;50.960;6.830;2023-07-30T08:00:57;17.50;87.10
14733;DHT22;7457;50.960;6.830;2023-07-30T08:03:23;17.60;87.70
14733;DHT22;7457;50.960;6.830;2023-07-30T08:05:49;17.60;88.00
14733;DHT22;7457;50.960;6.830;2023-07-30T08:08:15;17.70;87.80
14733;DHT22;7457;50.960;6.830;2023-07-30T08:10:41;17.80;87.80
14733;DHT22;7457;50.960;6.830;2023-07-30T08:13:12;17.90;87.50
14733;DHT22;7457;50.960;6.830;2023-07-30T08:15:38;18.10;86.70
14733;DHT22;7457;50.960;6.830;2023-07-30T08:18:04;18.10;86.10
14733;DHT22;7457;50.960;6.830;2023-07-30T08:20:30;18.20;85.80
14733;DHT22;7457;50.960;6.830;2023-07-30T08:22:55;18.20;85.50
14733;DHT22;7457;50.960;6.830;2023-07-30T08:25:21;18.20;85.40
14733;DHT22;7457;50.960;6.830;2023-07-30T08:27:47;18.10;85.40
14733;DHT22;7457;50.960;6.830;2023-07-30T08:30:13;18.00;84.60
14733;DHT22;7457;50.960;6.830;2023-07-30T08:32:38;17.90;84.50
14733;DHT22;7457;50.960;6.830;2023-07-30T08:35:05;17.70;85.00
14733;DHT22;7457;50.960;6.830;2023-07-30T08:37:30;17.60;86.10
14733;DHT22;7457;50.960;6.830;2023-07-30T08:39:56;17.50;87.30
14733;DHT22;7457;50.960;6.830;2023-07-30T08:42:22;17.70;88.20
14733;DHT22;7457;50.960;6.830;2023-07-30T08:44:48;18.00;89.10
14733;DHT22;7457;50.960;6.830;2023-07-30T08:47:13;18.40;88.30
14733;DHT22;7457;50.960;6.830;2023-07-30T08:49:39;18.80;87.70
14733;DHT22;7457;50.960;6.830;2023-07-30T08:52:08;19.30;86.40
14733;DHT22;7457;50.960;6.830;2023-07-30T08:54:34;19.60;84.10
14733;DHT22;7457;50.960;6.830;2023-07-30T08:57:01;19.70;83.00
14733;DHT22;7457;50.960;6.830;2023-07-30T08:59:52;19.70;82.50
14733;DHT22;7457;50.960;6.830;2023-07-30T09:02:30;19.80;82.20
14733;DHT22;7457;50.960;6.830;2023-07-30T09:04:59;19.80;81.70
14733;DHT22;7457;50.960;6.830;2023-07-30T09:07:25;19.80;81.70
14733;DHT22;7457;50.960;6.830;2023-07-30T09:09:51;19.90;81.10
14733;DHT22;7457;50.960;6.830;2023-07-30T09:12:17;19.90;80.20
14733;DHT22;7457;50.960;6.830;2023-07-30T09:14:43;19.80;79.50
14733;DHT22;7457;50.960;6.830;2023-07-30T09:17:17;19.70;79.10
14733;DHT22;7457;50.960;6.830;2023-07-30T09:19:43;19.60;79.20
14733;DHT22;7457;50.960;6.830;2023-07-30T09:22:09;19.60;79.60
14733;DHT22;7457;50.960;6.830;2023-07-30T09:24:35;19.50;80.20
14733;DHT22;7457;50.960;6.830;2023-07-30T09:27:02;19.50;80.40
14733;DHT22;7457;50.960;6.830;2023-07-30T09:29:28;19.60;80.00
14733;DHT22;7457;50.960;6.830;2023-07-30T09:31:54;19.60;80.20
14733;DHT22;7457;50.960;6.830;2023-07-30T09:34:23;19.80;79.80
14733;DHT22;7457;50.960;6.830;2023-07-30T09:36:53;20.30;79.70
14733;DHT22;7457;50.960;6.830;2023-07-30T09:39:24;21.20;78.70
14733;DHT22;7457;50.960;6.830;2023-07-30T09:41:51;22.10;76.90
14733;DHT22;7457;50.960;6.830;2023-07-30T09:44:18;23.00;74.60
14733;DHT22;7457;50.960;6.830;2023-07-30T09:46:45;23.40;71.60
14733;DHT22;7457;50.960;6.830;2023-07-30T09:49:15;23.60;71.20
14733;DHT22;7457;50.960;6.830;2023-07-30T09:51:41;23.90;69.70
14733;DHT22;7457;50.960;6.830;2023-07-30T09:54:08;24.30;69.20
14733;DHT22;7457;50.960;6.830;2023-07-30T09:56:36;24.80;69.30
14733;DHT22;7457;50.960;6.830;2023-07-30T09:59:02;25.00;65.40
14733;DHT22;7457;50.960;6.830;2023-07-30T10:01:29;24.70;67.50
14733;DHT22;7457;50.960;6.830;2023-07-30T10:03:56;24.30;66.90
14733;DHT22;7457;50.960;6.830;2023-07-30T10:06:25;23.80;64.60
14733;DHT22;7457;50.960;6.830;2023-07-30T10:08:53;23.30;66.90
14733;DHT22;7457;50.960;6.830;2023-07-30T10:11:21;23.40;67.30
14733;DHT22;7457;50.960;6.830;2023-07-30T10:13:47;23.60;68.10
14733;DHT22;7457;50.960;6.830;2023-07-30T10:16:13;24.10;67.50
14733;DHT22;7457;50.960;6.830;2023-07-30T10:18:40;24.70;65.70
14733;DHT22;7457;50.960;6.830;2023-07-30T10:21:10;25.20;64.40
14733;DHT22;7457;50.960;6.830;2023-07-30T10:23:46;25.30;62.80
14733;DHT22;7457;50.960;6.830;2023-07-30T10:26:12;25.10;60.90
14733;DHT22;7457;50.960;6.830;2023-07-30T10:28:37;24.70;61.70
14733;DHT22;7457;50.960;6.830;2023-07-30T10:31:07;24.70;62.60
14733;DHT22;7457;50.960;6.830;2023-07-30T10:33:53;24.80;62.10
14733;DHT22;7457;50.960;6.830;2023-07-30T10:38:57;24.20;60.50
14733;DHT22;7457;50.960;6.830;2023-07-30T10:41:22;23.70;60.90
14733;DHT22;7457;50.960;6.830;2023-07-30T10:43:49;23.00;61.50
14733;DHT22;7457;50.960;6.830;2023-07-30T10:46:18;22.50;63.00
14733;DHT22;7457;50.960;6.830;2023-07-30T10:48:46;22.10;64.20
14733;DHT22;7457;50.960;6.830;2023-07-30T10:51:15;22.00;67.20
14733;DHT22;7457;50.960;6.830;2023-07-30T10:53:49;22.20;66.80
14733;DHT22;7457;50.960;6.830;2023-07-30T10:56:22;22.30;67.10
14733;DHT22;7457;50.960;6.830;2023-07-30T10:58:51;22.40;65.10
14733;DHT22;7457;50.960;6.830;2023-07-30T11:01:17;22.60;64.10
14733;DHT22;7457;50.960;6.830;2023-07-30T11:03:49;22.60;63.60
14733;DHT22;7457;50.960;6.830;2023-07-30T11:06:21;22.40;62.10
14733;DHT22;7457;50.960;6.830;2023-07-30T11:08:47;22.10;61.90
14733;DHT22;7457;50.960;6.830;2023-07-30T11:11:13;21.70;62.60
14733;DHT22;7457;50.960;6.830;2023-07-30T11:13:41;21.40;63.90
14733;DHT22;7457;50.960;6.830;2023-07-30T11:16:09;21.30;64.50
14733;DHT22;7457;50.960;6.830;2023-07-30T11:18:36;21.20;63.90
14733;DHT22;7457;50.960;6.830;2023-07-30T11:21:06;21.20;64.50
14733;DHT22;7457;50.960;6.830;2023-07-30T11:23:32;21.30;65.10
14733;DHT22;7457;50.960;6.830;2023-07-30T11:25:59;21.40;64.70
14733;DHT22;7457;50.960;6.830;2023-07-30T11:28:33;21.30;64.30
14733;DHT22;7457;50.960;6.830;2023-07-30T11:31:00;21.20;64.00
14733;DHT22;7457;50.960;6.830;2023-07-30T11:33:28;21.00;63.80
14733;DHT22;7457;50.960;6.830;2023-07-30T11:35:55;20.90;65.10
14733;DHT22;7457;50.960;6.830;2023-07-30T11:38:23;20.90;65.80
14733;DHT22;7457;50.960;6.830;2023-07-30T11:40:51;21.00;66.00
14733;DHT22;7457;50.960;6.830;2023-07-30T11:43:17;21.10;64.80
14733;DHT22;7457;50.960;6.830;2023-07-30T11:45:43;21.10;64.70
14733;DHT22;7457;50.960;6.830;2023-07-30T11:48:10;21.00;64.70
14733;DHT22;7457;50.960;6.830;2023-07-30T11:50:52;21.00;64.70
14733;DHT22;7457;50.960;6.830;2023-07-30T11:53:18;21.00;64.80
14733;DHT22;7457;50.960;6.830;2023-07-30T11:55:45;21.10;65.00
14733;DHT22;7457;50.960;6.830;2023-07-30T11:58:12;21.20;64.80
14733;DHT22;7457;50.960;6.830;2023-07-30T12:00:39;21.20;64.70
14733;DHT22;7457;50.960;6.830;2023-07-30T12:03:08;21.10;64.20
14733;DHT22;7457;50.960;6.830;2023-07-30T12:05:35;21.00;64.90
14733;DHT22;7457;50.960;6.830;2023-07-30T12:08:12;20.80;64.50
14733;DHT22;7457;50.960;6.830;2023-07-30T12:10:46;20.60;65.20
14733;DHT22;7457;50.960;6.830;2023-07-30T12:13:18;20.50;66.40
14733;DHT22;7457;50.960;6.830;2023-07-30T12:18:16;20.60;67.90
14733;DHT22;7457;50.960;6.830;2023-07-30T12:20:42;20.80;68.40
14733;DHT22;7457;50.960;6.830;2023-07-30T12:23:08;21.10;68.60
14733;DHT22;7457;50.960;6.830;2023-07-30T12:25:33;21.40;69.10
14733;DHT22;7457;50.960;6.830;2023-07-30T12:27:59;21.90;69.10
14733;DHT22;7457;50.960;6.830;2023-07-30T12:30:25;22.40;69.00
14733;DHT22;7457;50.960;6.830;2023-07-30T12:32:54;22.80;67.70
14733;DHT22;7457;50.960;6.830;2023-07-30T12:35:20;23.20;66.40
14733;DHT22;7457;50.960;6.830;2023-07-30T12:37:46;23.30;65.50
14733;DHT22;7457;50.960;6.830;2023-07-30T12:40:12;23.30;65.50
14733;DHT22;7457;50.960;6.830;2023-07-30T12:42:37;23.30;65.60
14733;DHT22;7457;50.960;6.830;2023-07-30T12:45:03;23.40;66.40
14733;DHT22;7457;50.960;6.830;2023-07-30T12:47:29;23.60;65.90
14733;DHT22;7457;50.960;6.830;2023-07-30T12:49:54;23.70;66.00
14733;DHT22;7457;50.960;6.830;2023-07-30T12:52:20;23.80;65.70
14733;DHT22;7457;50.960;6.830;2023-07-30T12:54:48;23.90;65.20
14733;DHT22;7457;50.960;6.830;2023-07-30T12:57:15;23.80;64.30
14733;DHT22;7457;50.960;6.830;2023-07-30T12:59:41;23.80;65.80
14733;DHT22;7457;50.960;6.830;2023-07-30T13:02:06;23.90;65.40
14733;DHT22;7457;50.960;6.830;2023-07-30T13:04:32;23.90;63.50
14733;DHT22;7457;50.960;6.830;2023-07-30T13:06:57;23.70;63.60
14733;DHT22;7457;50.960;6.830;2023-07-30T13:09:23;23.40;63.60
14733;DHT22;7457;50.960;6.830;2023-07-30T13:11:49;23.10;64.60
14733;DHT22;7457;50.960;6.830;2023-07-30T13:14:14;22.80;65.30
14733;DHT22;7457;50.960;6.830;2023-07-30T13:16:43;22.50;65.70
14733;DHT22;7457;50.960;6.830;2023-07-30T13:19:09;22.30;66.20
14733;DHT22;7457;50.960;6.830;2023-07-30T13:21:34;22.10;67.20
14733;DHT22;7457;50.960;6.830;2023-07-30T13:24:00;22.10;68.70
14733;DHT22;7457;50.960;6.830;2023-07-30T13:26:26;22.20;68.60
14733;DHT22;7457;50.960;6.830;2023-07-30T13:28:51;22.30;68.00
14733;DHT22;7457;50.960;6.830;2023-07-30T13:31:17;22.40;68.20
14733;DHT22;7457;50.960;6.830;2023-07-30T13:33:44;22.50;68.20
14733;DHT22;7457;50.960;6.830;2023-07-30T13:36:12;22.60;67.80
14733;DHT22;7457;50.960;6.830;2023-07-30T13:38:38;22.80;67.50
14733;DHT22;7457;50.960;6.830;2023-07-30T13:41:05;22.80;65.80
14733;DHT22;7457;50.960;6.830;2023-07-30T13:43:31;22.80;66.10
14733;DHT22;7457;50.960;6.830;2023-07-30T13:45:57;22.60;66.00
14733;DHT22;7457;50.960;6.830;2023-07-30T13:48:24;22.50;65.60
14733;DHT22;7457;50.960;6.830;2023-07-30T13:50:50;22.50;67.10
14733;DHT22;7457;50.960;6.830;2023-07-30T13:53:16;22.60;64.60
14733;DHT22;7457;50.960;6.830;2023-07-30T13:55:41;22.60;64.90
14733;DHT22;7457;50.960;6.830;2023-07-30T13:58:08;22.70;63.70
14733;DHT22;7457;50.960;6.830;2023-07-30T14:00:33;22.70;62.50
14733;DHT22;7457;50.960;6.830;2023-07-30T14:03:02;22.70;61.60
14733;DHT22;7457;50.960;6.830;2023-07-30T14:05:27;22.50;62.10
14733;DHT22;7457;50.960;6.830;2023-07-30T14:07:55;22.40;63.40
14733;DHT22;7457;50.960;6.830;2023-07-30T14:10:27;22.50;64.20
14733;DHT22;7457;50.960;6.830;2023-07-30T14:12:53;22.60;61.70
14733;DHT22;7457;50.960;6.830;2023-07-30T14:15:18;22.60;61.70
14733;DHT22;7457;50.960;6.830;2023-07-30T14:17:44;22.60;63.10
14733;DHT22;7457;50.960;6.830;2023-07-30T14:20:10;22.70;63.50
14733;DHT22;7457;50.960;6.830;2023-07-30T14:22:36;22.90;63.10
14733;DHT22;7457;50.960;6.830;2023-07-30T14:25:02;23.00;61.90
14733;DHT22;7457;50.960;6.830;2023-07-30T14:27:28;23.20;62.00
14733;DHT22;7457;50.960;6.830;2023-07-30T14:29:53;23.30;60.40
14733;DHT22;7457;50.960;6.830;2023-07-30T14:32:23;23.30;60.00
14733;DHT22;7457;50.960;6.830;2023-07-30T14:34:49;23.20;60.40
14733;DHT22;7457;50.960;6.830;2023-07-30T14:37:15;23.10;59.80
14733;DHT22;7457;50.960;6.830;2023-07-30T14:39:41;23.10;60.40
14733;DHT22;7457;50.960;6.830;2023-07-30T14:42:07;23.00;59.00
14733;DHT22;7457;50.960;6.830;2023-07-30T14:44:33;22.90;58.80
14733;DHT22;7457;50.960;6.830;2023-07-30T14:46:59;22.70;58.80
14733;DHT22;7457;50.960;6.830;2023-07-30T14:49:25;22.40;60.00
14733;DHT22;7457;50.960;6.830;2023-07-30T14:51:54;22.20;60.30
14733;DHT22;7457;50.960;6.830;2023-07-30T14:54:20;22.10;62.30
14733;DHT22;7457;50.960;6.830;2023-07-30T14:56:45;22.20;61.90
14733;DHT22;7457;50.960;6.830;2023-07-30T14:59:11;22.40;60.30
14733;DHT22;7457;50.960;6.830;2023-07-30T15:01:36;22.40;60.30
14733;DHT22;7457;50.960;6.830;2023-07-30T15:04:02;22.30;60.60
14733;DHT22;7457;50.960;6.830;2023-07-30T15:06:30;22.10;61.00
14733;DHT22;7457;50.960;6.830;2023-07-30T15:08:56;22.10;61.00
14733;DHT22;7457;50.960;6.830;2023-07-30T15:11:22;22.10;60.70
14733;DHT22;7457;50.960;6.830;2023-07-30T15:13:47;22.10;60.60
14733;DHT22;7457;50.960;6.830;2023-07-30T15:16:13;22.20;60.30
14733;DHT22;7457;50.960;6.830;2023-07-30T15:18:41;22.30;60.60
14733;DHT22;7457;50.960;6.830;2023-07-30T15:21:10;22.30;60.00
14733;DHT22;7457;50.960;6.830;2023-07-30T15:23:36;22.30;59.20
14733;DHT22;7457;50.960;6.830;2023-07-30T15:26:01;22.40;60.50
14733;DHT22;7457;50.960;6.830;2023-07-30T15:28:27;22.60;61.00
14733;DHT22;7457;50.960;6.830;2023-07-30T15:30:53;22.80;60.50
14733;DHT22;7457;50.960;6.830;2023-07-30T15:33:19;23.00;59.40
14733;DHT22;7457;50.960;6.830;2023-07-30T15:35:44;23.10;58.90
14733;DHT22;7457;50.960;6.830;2023-07-30T15:38:10;23.00;59.00
14733;DHT22;7457;50.960;6.830;2023-07-30T15:40:36;22.90;58.90
14733;DHT22;7457;50.960;6.830;2023-07-30T15:43:03;22.80;57.80
14733;DHT22;7457;50.960;6.830;2023-07-30T15:45:30;22.60;58.50